createdAt,value
2023-01-17T00:04:48.270Z,6.72
2023-01-17T00:14:52.918Z,7.82
2023-01-17T00:24:56.255Z,10.10
2023-01-17T00:34:58.176Z,11.80
2023-01-17T00:45:01.566Z,8.05
2023-01-17T00:55:03.823Z,9.93
2023-01-17T01:05:07.819Z,5.88
2023-01-17T01:15:09.951Z,4.55
2023-01-17T01:25:16.084Z,5.75
2023-01-17T01:35:18.317Z,5.18
2023-01-17T01:45:23.829Z,5.63
2023-01-17T01:55:29.784Z,10.25
2023-01-17T02:05:34.797Z,5.03
2023-01-17T02:15:44.740Z,3.47
2023-01-17T02:26:22.314Z,4.53
2023-01-17T02:36:31.765Z,4.38
2023-01-17T02:46:42.780Z,3.80
2023-01-17T02:56:53.555Z,4.45
2023-01-17T03:06:58.858Z,5.40
2023-01-17T03:17:02.181Z,5.93
2023-01-17T03:27:04.238Z,2.38
2023-01-17T03:37:07.541Z,3.70
2023-01-17T03:47:09.494Z,3.13
2023-01-17T03:57:12.763Z,5.10
2023-01-17T04:07:14.698Z,5.22
2023-01-17T04:17:19.621Z,3.63
2023-01-17T04:27:21.530Z,4.00
2023-01-17T04:37:24.961Z,3.78
2023-01-17T04:47:26.875Z,2.17
2023-01-17T04:57:30.204Z,5.15
2023-01-17T05:07:32.848Z,4.97
2023-01-17T05:17:37.198Z,1.65
2023-01-17T05:27:39.134Z,2.42
2023-01-17T05:37:43.958Z,2.22
2023-01-17T05:47:47.093Z,3.33
2023-01-17T05:57:50.866Z,3.22
2023-01-17T06:07:53.076Z,2.78
2023-01-17T06:17:56.815Z,2.97
2023-01-17T06:27:58.773Z,4.05
2023-01-17T06:38:02.070Z,2.95
2023-01-17T06:48:05.252Z,5.35
2023-01-17T06:58:09.776Z,8.35
2023-01-17T07:08:11.748Z,8.07
2023-01-17T07:18:15.093Z,3.42
2023-01-17T07:28:17.025Z,3.65
2023-01-17T07:38:20.444Z,4.55
2023-01-17T07:48:24.001Z,6.43
2023-01-17T07:58:27.376Z,9.00
2023-01-17T08:08:29.645Z,9.32
2023-01-17T08:18:33.055Z,7.90
2023-01-17T08:28:35.125Z,6.47
2023-01-17T08:38:38.553Z,6.40
2023-01-17T08:48:40.484Z,5.50
2023-01-17T08:58:43.865Z,8.52
2023-01-17T09:08:46.473Z,6.10
2023-01-17T09:18:53.386Z,8.25
2023-01-17T09:28:55.956Z,7.07
2023-01-17T09:38:59.642Z,5.07
2023-01-17T09:49:08.331Z,5.60
2023-01-17T09:59:33.030Z,10.20
2023-01-17T10:09:57.680Z,12.82
2023-01-17T10:20:15.320Z,16.20
2023-01-17T10:30:23.212Z,10.27
2023-01-17T10:40:32.691Z,8.15
2023-01-17T10:50:44.290Z,19.73
2023-01-17T11:00:52.440Z,11.10
2023-01-17T11:10:54.462Z,6.70
2023-01-17T11:21:10.167Z,6.50
2023-01-17T11:31:26.322Z,10.20
2023-01-17T11:41:34.217Z,13.52
2023-01-17T11:51:41.139Z,12.35
2023-01-17T12:01:49.232Z,9.63
2023-01-17T12:11:58.098Z,7.55
2023-01-17T12:22:17.798Z,11.23
2023-01-17T12:32:52.115Z,9.60
2023-01-17T12:43:03.008Z,9.65
2023-01-17T12:53:14.200Z,7.30
2023-01-17T13:03:26.114Z,10.43
2023-01-17T13:13:29.624Z,7.60
2023-01-17T13:23:47.732Z,6.45
2023-01-17T13:34:24.935Z,9.32
2023-01-17T13:44:29.234Z,14.93
2023-01-17T13:54:32.539Z,9.73
2023-01-17T14:05:13.759Z,17.13
2023-01-17T14:25:27.618Z,11.95
2023-01-17T14:35:31.724Z,12.40
2023-01-17T14:45:36.423Z,17.27
2023-01-17T14:55:39.146Z,18.73
2023-01-17T15:05:45.710Z,15.27
2023-01-17T15:15:47.945Z,18.25
2023-01-17T15:25:52.956Z,16.85
2023-01-17T15:36:00.006Z,21.80
2023-01-17T15:46:03.489Z,31.45
2023-01-17T15:56:27.313Z,25.38
2023-01-17T16:06:36.786Z,27.20
2023-01-17T16:16:38.813Z,32.78
2023-01-17T16:26:42.222Z,23.52
2023-01-17T16:36:44.193Z,25.15
2023-01-17T16:46:47.530Z,25.48
2023-01-17T16:56:49.575Z,23.88
2023-01-17T17:06:52.958Z,24.75
2023-01-17T17:16:54.920Z,24.52
2023-01-17T17:26:58.594Z,21.52
2023-01-17T17:37:03.504Z,19.23
2023-01-17T17:47:07.471Z,21.17
2023-01-17T17:57:09.638Z,24.75
2023-01-17T18:07:13.052Z,25.17
2023-01-17T18:17:15.031Z,21.60
2023-01-17T18:27:18.346Z,21.38
2023-01-17T18:37:20.295Z,17.52
2023-01-17T18:47:23.633Z,23.63
2023-01-17T18:57:25.599Z,27.70
2023-01-17T19:07:29.066Z,22.90
2023-01-17T19:17:31.027Z,22.45
2023-01-17T19:27:34.438Z,19.38
2023-01-17T19:37:36.398Z,20.58
2023-01-17T19:47:40.359Z,22.33
2023-01-17T19:57:42.337Z,26.80
2023-01-17T20:07:45.666Z,19.92
2023-01-17T20:17:47.619Z,22.35
2023-01-17T20:27:51.266Z,29.25
2023-01-17T20:37:53.265Z,21.05
2023-01-17T20:47:57.471Z,21.83
2023-01-17T20:58:01.568Z,23.77
2023-01-17T21:08:05.230Z,26.02
2023-01-17T21:18:07.180Z,25.20
2023-01-17T21:29:00.213Z,18.48
2023-01-17T21:39:18.812Z,23.45
2023-01-17T21:49:22.176Z,17.13
2023-01-17T21:59:25.505Z,20.35
2023-01-17T22:09:27.506Z,17.70
2023-01-17T22:19:30.867Z,22.40
2023-01-17T22:29:32.922Z,22.20
2023-01-17T22:39:36.484Z,15.73
2023-01-17T22:49:38.579Z,12.52
2023-01-17T22:59:41.932Z,10.82
2023-01-17T23:09:44.769Z,11.57
2023-01-17T23:19:49.592Z,14.05
2023-01-17T23:29:51.546Z,11.35
2023-01-17T23:39:54.837Z,11.82
2023-01-17T23:49:56.778Z,10.48
